Terminal Aerodrome Forecast
Issued by NWS

Home | Current Version | Previous Version | Text Only | Print | Product List | Glossary On
Versions: 1 2 3 4 5 6 7 8 9 10 11 12 13 14
647
FTUS41 KCAR 051723
TAFBHB
TAF
KBHB 051723Z 0518/0618 15004KT 3SM -SN OVC070
     FM052300 12007KT 4SM -SN OVC015
     FM060400 04006KT P6SM OVC015
     FM060700 35009KT P6SM BKN025
     FM060800 34008KT P6SM BKN050=

USA.gov is the U.S. government's official web portal to all federal, state and local government web resources and services.